createdAt,value
2022-10-04T00:00:25.629Z,102553.16
2022-10-04T00:02:58.433Z,102537.25
2022-10-04T00:05:26.069Z,102539.91
2022-10-04T00:07:57.979Z,102533.59
2022-10-04T00:10:34.478Z,102533.97
2022-10-04T00:13:03.840Z,102524.00
2022-10-04T00:15:38.653Z,102518.63
2022-10-04T00:18:20.989Z,102524.72
2022-10-04T00:20:50.638Z,102521.19
2022-10-04T00:23:23.052Z,102521.19
2022-10-04T00:25:53.731Z,102516.81
2022-10-04T00:28:20.293Z,102513.28
2022-10-04T00:31:16.143Z,102524.13
2022-10-04T00:33:48.630Z,102520.59
2022-10-04T00:36:40.955Z,102509.06
2022-10-04T00:39:07.388Z,102510.88
2022-10-04T00:41:51.728Z,102518.91
2022-10-04T00:44:33.041Z,102507.06
2022-10-04T00:47:02.106Z,102509.34
2022-10-04T00:49:35.163Z,102513.97
2022-10-04T00:52:09.284Z,102516.38
2022-10-04T00:54:44.511Z,102518.22
2022-10-04T00:57:23.276Z,102498.78
2022-10-04T00:59:55.068Z,102488.91
2022-10-04T01:02:53.074Z,102496.09
2022-10-04T01:05:30.666Z,102497.78
2022-10-04T01:08:10.223Z,102481.16
2022-10-04T01:10:45.862Z,102473.84
2022-10-04T01:13:21.426Z,102472.16
2022-10-04T01:16:12.828Z,102455.78
2022-10-04T01:18:39.551Z,102469.59
2022-10-04T01:21:08.904Z,102466.94
2022-10-04T01:23:44.725Z,102462.56
2022-10-04T01:26:30.066Z,102468.16
2022-10-04T01:28:58.968Z,102473.53
2022-10-04T01:31:30.225Z,102466.47
2022-10-04T01:33:57.826Z,102470.97
2022-10-04T01:36:24.361Z,102453.22
2022-10-04T01:38:51.621Z,102456.06
2022-10-04T01:41:25.378Z,102446.47
2022-10-04T01:43:58.180Z,102446.47
2022-10-04T01:46:33.332Z,102455.06
2022-10-04T01:49:07.825Z,102438.72
2022-10-04T01:51:42.600Z,102445.50
2022-10-04T01:54:15.917Z,102439.19
2022-10-04T01:57:00.194Z,102428.75
2022-10-04T01:59:37.940Z,102421.81
2022-10-04T02:02:34.708Z,102424.50
2022-10-04T02:05:03.468Z,102418.31
2022-10-04T02:07:32.705Z,102427.03
2022-10-04T02:10:04.754Z,102422.53
2022-10-04T02:12:32.541Z,102416.34
2022-10-04T02:15:02.678Z,102400.81
2022-10-04T02:17:32.218Z,102383.81
2022-10-04T02:20:01.474Z,102376.38
2022-10-04T02:22:28.694Z,102379.03
2022-10-04T02:24:57.423Z,102364.38
2022-10-04T02:27:30.024Z,102356.09
2022-10-04T02:30:10.000Z,102334.09
2022-10-04T02:32:57.727Z,102350.16
2022-10-04T02:35:31.336Z,102347.34
2022-10-04T02:38:15.735Z,102336.66
2022-10-04T02:40:57.103Z,102334.09
2022-10-04T02:43:36.621Z,102343.69
2022-10-04T02:46:08.516Z,102333.44
2022-10-04T02:48:48.452Z,102344.81
2022-10-04T02:51:17.659Z,102340.31
2022-10-04T02:54:06.547Z,102332.97
2022-10-04T02:56:34.069Z,102334.53
2022-10-04T02:59:03.361Z,102331.03
2022-10-04T03:01:48.467Z,102344.13
2022-10-04T03:04:15.344Z,102330.16
2022-10-04T03:06:45.942Z,102320.59
2022-10-04T03:09:14.482Z,102333.56
2022-10-04T03:11:42.813Z,102323.00
2022-10-04T03:14:18.861Z,102324.69
2022-10-04T03:16:47.942Z,102322.16
2022-10-04T03:19:16.922Z,102323.00
2022-10-04T03:21:47.691Z,102303.69
2022-10-04T03:24:21.702Z,102304.81
2022-10-04T03:26:52.469Z,102322.41
2022-10-04T03:29:21.924Z,102303.41
2022-10-04T03:31:50.765Z,102316.66
2022-10-04T03:34:21.372Z,102320.97
2022-10-04T03:36:49.687Z,102322.53
2022-10-04T03:39:38.291Z,102325.22
2022-10-04T03:42:13.955Z,102328.88
2022-10-04T03:44:42.101Z,102323.81
2022-10-04T03:47:15.033Z,102311.31
2022-10-04T03:49:47.397Z,102305.09
2022-10-04T03:52:27.342Z,102281.94
2022-10-04T03:54:59.662Z,102296.59
2022-10-04T03:57:26.978Z,102302.66
2022-10-04T03:59:53.748Z,102298.28
2022-10-04T04:02:26.029Z,102296.47
2022-10-04T04:05:00.299Z,102291.97
2022-10-04T04:07:40.530Z,102277.31
2022-10-04T04:10:29.914Z,102279.00
2022-10-04T04:13:07.607Z,102285.31
2022-10-04T04:15:34.867Z,102289.97
2022-10-04T04:18:07.848Z,102289.81
2022-10-04T04:20:37.645Z,102282.22
2022-10-04T04:23:35.053Z,102291.66
2022-10-04T04:26:12.492Z,102284.91
2022-10-04T04:28:44.900Z,102281.22
2022-10-04T04:31:36.490Z,102290.09
2022-10-04T04:34:06.475Z,102281.38
2022-10-04T04:36:40.585Z,102280.66
2022-10-04T04:39:34.265Z,102283.22
2022-10-04T04:42:02.587Z,102277.88
2022-10-04T04:44:29.670Z,102280.97
2022-10-04T04:46:56.917Z,102268.56
2022-10-04T04:49:24.112Z,102266.03
2022-10-04T04:51:52.551Z,102267.72
2022-10-04T04:54:23.949Z,102264.66
2022-10-04T04:56:52.905Z,102262.13
2022-10-04T04:59:22.478Z,102266.34
2022-10-04T05:01:50.067Z,102271.84
2022-10-04T05:04:16.550Z,102280.56
2022-10-04T05:06:49.927Z,102278.75
2022-10-04T05:09:30.455Z,102270.72
2022-10-04T05:12:07.241Z,102265.63
2022-10-04T05:14:38.094Z,102278.03
2022-10-04T05:17:05.812Z,102259.56
2022-10-04T05:19:39.276Z,102256.91
2022-10-04T05:22:14.707Z,102263.81
2022-10-04T05:24:44.419Z,102275.47
2022-10-04T05:27:18.147Z,102268.72
2022-10-04T05:30:32.535Z,102278.72
2022-10-04T05:33:06.699Z,102269.13
2022-10-04T05:36:07.212Z,102279.22
2022-10-04T05:38:45.097Z,102275.84
2022-10-04T05:41:22.404Z,102285.44
2022-10-04T05:43:50.667Z,102276.81
2022-10-04T05:46:35.337Z,102279.38
2022-10-04T05:49:14.362Z,102282.63
2022-10-04T05:52:00.114Z,102274.75
2022-10-04T05:54:31.356Z,102281.78
2022-10-04T05:57:16.352Z,102283.47
2022-10-04T06:00:10.583Z,102286.16
2022-10-04T06:02:51.270Z,102278.13
2022-10-04T06:05:40.464Z,102264.31
2022-10-04T06:08:09.788Z,102277.16
2022-10-04T06:10:46.781Z,102276.31
2022-10-04T06:13:38.479Z,102277.16
2022-10-04T06:16:37.740Z,102270.09
2022-10-04T06:19:53.121Z,102267.31
2022-10-04T06:22:22.640Z,102257.59
2022-10-04T06:24:57.486Z,102267.19
2022-10-04T06:27:57.959Z,102256.50
2022-10-04T06:30:24.870Z,102250.44
2022-10-04T06:33:06.805Z,102238.63
2022-10-04T06:36:01.137Z,102234.13
2022-10-04T06:38:53.204Z,102238.75
2022-10-04T06:41:33.200Z,102240.31
2022-10-04T06:44:28.666Z,102235.78
2022-10-04T06:47:05.073Z,102228.78
2022-10-04T06:50:02.380Z,102229.47
2022-10-04T06:52:54.121Z,102217.66
2022-10-04T06:55:39.980Z,102215.72
2022-10-04T06:58:37.129Z,102208.81
2022-10-04T07:01:17.067Z,102210.22
2022-10-04T07:03:57.335Z,102221.09
2022-10-04T07:06:34.740Z,102204.78
2022-10-04T07:09:07.970Z,102216.47
2022-10-04T07:12:01.704Z,102223.81
2022-10-04T07:14:35.554Z,102208.63
2022-10-04T07:17:08.554Z,102209.75
2022-10-04T07:19:39.265Z,102221.41
2022-10-04T07:22:10.188Z,102229.31
2022-10-04T07:25:04.883Z,102220.16
2022-10-04T07:28:27.577Z,102236.75
2022-10-04T07:31:01.790Z,102231.41
2022-10-04T07:33:31.384Z,102224.41
2022-10-04T07:36:07.963Z,102230.59
2022-10-04T07:38:42.730Z,102227.34
2022-10-04T07:41:26.548Z,102232.59
2022-10-04T07:43:59.735Z,102231.88
2022-10-04T07:46:37.234Z,102243.28
2022-10-04T07:49:04.510Z,102240.63
2022-10-04T07:51:44.885Z,102230.88
2022-10-04T07:54:19.545Z,102221.03
2022-10-04T07:56:51.343Z,102223.56
2022-10-04T07:59:36.787Z,102227.66
2022-10-04T08:02:31.208Z,102225.13
2022-10-04T08:05:07.800Z,102238.34
2022-10-04T08:08:24.998Z,102227.94
2022-10-04T08:11:13.328Z,102226.53
2022-10-04T08:13:42.644Z,102229.78
2022-10-04T08:16:26.079Z,102225.84
2022-10-04T08:19:10.152Z,102221.31
2022-10-04T08:22:00.622Z,102219.91
2022-10-04T08:24:42.327Z,102212.44
2022-10-04T08:27:20.657Z,102227.47
2022-10-04T08:30:06.534Z,102223.34
2022-10-04T08:32:51.001Z,102218.56
2022-10-04T08:36:02.086Z,102216.59
2022-10-04T08:38:57.047Z,102226.47
2022-10-04T08:41:47.720Z,102219.28
2022-10-04T08:44:47.735Z,102213.91
2022-10-04T08:47:38.993Z,102213.34
2022-10-04T08:50:23.646Z,102214.19
2022-10-04T08:53:18.307Z,102220.50
2022-10-04T08:56:00.078Z,102218.63
2022-10-04T08:58:29.183Z,102214.19
2022-10-04T09:01:11.260Z,102214.09
2022-10-04T09:04:01.693Z,102216.25
2022-10-04T09:06:31.081Z,102218.34
2022-10-04T09:09:34.233Z,102212.50
2022-10-04T09:12:20.197Z,102206.31
2022-10-04T09:15:05.457Z,102212.75
2022-10-04T09:17:50.970Z,102210.94
2022-10-04T09:20:38.786Z,102216.88
2022-10-04T09:23:21.915Z,102216.38
2022-10-04T09:25:49.909Z,102205.94
2022-10-04T09:28:36.090Z,102220.78
2022-10-04T09:31:31.913Z,102209.50
2022-10-04T09:34:23.265Z,102205.59
2022-10-04T09:36:55.736Z,102216.06
2022-10-04T09:39:46.816Z,102204.28
2022-10-04T09:42:32.111Z,102199.50
2022-10-04T09:45:30.139Z,102197.72
2022-10-04T09:48:18.246Z,102192.91
2022-10-04T09:50:58.796Z,102189.84
2022-10-04T09:53:54.670Z,102188.72
2022-10-04T09:56:42.732Z,102194.56
2022-10-04T09:59:21.887Z,102197.50
2022-10-04T10:01:55.039Z,102191.59
2022-10-04T10:04:21.523Z,102195.72
2022-10-04T10:07:18.285Z,102205.72
2022-10-04T10:10:15.058Z,102211.22
2022-10-04T10:13:00.142Z,102208.84
2022-10-04T10:16:06.571Z,102204.31
2022-10-04T10:19:01.161Z,102210.81
2022-10-04T10:21:45.171Z,102197.88
2022-10-04T10:24:52.933Z,102204.22
2022-10-04T10:27:48.982Z,102209.72
2022-10-04T10:30:23.456Z,102192.25
2022-10-04T10:33:17.590Z,102190.28
2022-10-04T10:36:05.216Z,102195.91
2022-10-04T10:38:49.691Z,102195.91
2022-10-04T10:41:37.092Z,102195.91
2022-10-04T10:44:31.105Z,102190.56
2022-10-04T10:47:12.649Z,102181.81
2022-10-04T10:50:03.815Z,102164.66
2022-10-04T10:52:43.360Z,102175.09
2022-10-04T10:55:42.693Z,102175.09
2022-10-04T10:58:22.729Z,102176.78
2022-10-04T11:00:54.878Z,102174.25
2022-10-04T11:03:32.408Z,102167.06
2022-10-04T11:06:16.317Z,102173.41
2022-10-04T11:09:05.983Z,102168.91
2022-10-04T11:11:32.673Z,102164.66
2022-10-04T11:14:21.095Z,102161.00
2022-10-04T11:17:04.015Z,102153.41
2022-10-04T11:20:05.364Z,102164.94
2022-10-04T11:23:10.917Z,102173.25
2022-10-04T11:26:37.671Z,102163.53
2022-10-04T11:29:31.414Z,102164.25
2022-10-04T11:32:00.947Z,102160.00
2022-10-04T11:34:49.145Z,102155.50
2022-10-04T11:37:18.819Z,102158.03
2022-10-04T11:40:04.587Z,102148.03
2022-10-04T11:42:50.457Z,102145.94
2022-10-04T11:45:34.100Z,102154.50
2022-10-04T11:48:39.015Z,102160.72
2022-10-04T11:51:35.181Z,102157.06
2022-10-04T11:54:16.935Z,102153.53
2022-10-04T11:57:08.086Z,102139.97
2022-10-04T11:59:59.173Z,102136.00
2022-10-04T12:02:44.663Z,102135.88
2022-10-04T12:05:48.931Z,102118.56
2022-10-04T12:08:41.135Z,102127.41
2022-10-04T12:12:01.976Z,102124.28
2022-10-04T12:14:31.499Z,102125.97
2022-10-04T12:17:10.124Z,102117.78
2022-10-04T12:20:02.050Z,102114.41
2022-10-04T12:23:00.295Z,102107.34
2022-10-04T12:25:53.697Z,102118.06
2022-10-04T12:28:32.400Z,102110.03
2022-10-04T12:31:23.883Z,102098.34
2022-10-04T12:34:04.361Z,102099.03
2022-10-04T12:36:56.259Z,102095.50
2022-10-04T12:40:02.888Z,102088.19
2022-10-04T12:42:48.794Z,102091.00
2022-10-04T12:45:42.147Z,102082.97
2022-10-04T12:48:36.954Z,102070.56
2022-10-04T12:51:21.907Z,102076.47
2022-10-04T12:53:48.393Z,102079.00
2022-10-04T12:56:37.312Z,102069.13
2022-10-04T12:59:18.173Z,102069.84
2022-10-04T13:02:10.759Z,102061.66
2022-10-04T13:04:59.691Z,102050.94
2022-10-04T13:08:05.738Z,102054.13
2022-10-04T13:10:52.301Z,102048.63
2022-10-04T13:13:30.015Z,102053.00
2022-10-04T13:19:22.680Z,102042.69
2022-10-04T13:22:54.778Z,102041.56
2022-10-04T13:25:32.252Z,102027.84
2022-10-04T13:28:20.650Z,102021.78
2022-10-04T13:31:04.776Z,102024.00
2022-10-04T13:33:46.113Z,102007.94
2022-10-04T13:37:05.134Z,102000.59
2022-10-04T13:39:46.471Z,101990.72
2022-10-04T13:42:41.650Z,101990.88
2022-10-04T13:45:23.936Z,101987.03
2022-10-04T13:48:21.694Z,101976.47
2022-10-04T13:51:20.703Z,101988.72
2022-10-04T13:54:30.338Z,101993.09
2022-10-04T13:57:13.314Z,101979.56
2022-10-04T13:59:50.361Z,101984.59
2022-10-04T14:02:35.113Z,101990.66
2022-10-04T14:05:20.154Z,101984.31
2022-10-04T14:08:11.448Z,101983.03
2022-10-04T14:11:11.675Z,101984.56
2022-10-04T14:13:57.240Z,101978.03
2022-10-04T14:17:03.367Z,101985.06
2022-10-04T14:19:58.252Z,101975.88
2022-10-04T14:22:36.674Z,101979.25
2022-10-04T14:25:21.744Z,101986.31
2022-10-04T14:28:10.330Z,102000.41
2022-10-04T14:31:20.068Z,102002.06
2022-10-04T14:34:13.663Z,101998.06
2022-10-04T14:37:11.024Z,102002.44
2022-10-04T14:39:47.639Z,101994.25
2022-10-04T14:42:49.056Z,101993.94
2022-10-04T14:45:26.177Z,101991.56
2022-10-04T14:48:29.710Z,101998.31
2022-10-04T14:50:58.974Z,102002.53
2022-10-04T14:53:49.720Z,102009.72
2022-10-04T14:56:42.269Z,102003.38
2022-10-04T14:59:14.929Z,101996.81
2022-10-04T15:02:05.451Z,102006.56
2022-10-04T15:04:56.989Z,102002.38
2022-10-04T15:07:37.455Z,102002.88
2022-10-04T15:10:38.386Z,102012.59
2022-10-04T15:13:29.327Z,102005.41
2022-10-04T15:16:22.802Z,101999.19
2022-10-04T15:18:56.231Z,102001.72
2022-10-04T15:21:43.902Z,101999.06
2022-10-04T15:24:16.544Z,101995.22
2022-10-04T15:27:07.385Z,102000.59
2022-10-04T15:29:58.000Z,101999.75
2022-10-04T15:32:37.371Z,101988.16
2022-10-04T15:35:25.774Z,102000.44
2022-10-04T15:37:58.306Z,101993.22
2022-10-04T15:40:49.485Z,101989.69
2022-10-04T15:43:27.064Z,101989.84
2022-10-04T15:46:24.456Z,101990.16
2022-10-04T15:49:23.227Z,101996.91
2022-10-04T15:52:08.290Z,101999.44
2022-10-04T15:55:02.740Z,101989.16
2022-10-04T15:57:44.481Z,101984.50
2022-10-04T16:00:27.400Z,101986.19
2022-10-04T16:03:16.998Z,101978.13
2022-10-04T16:06:02.100Z,101994.38
2022-10-04T16:08:57.802Z,101998.59
2022-10-04T16:11:29.946Z,101987.88
2022-10-04T16:14:04.745Z,101983.66
2022-10-04T16:16:40.397Z,101987.19
2022-10-04T16:19:30.165Z,101994.22
2022-10-04T16:22:15.939Z,101993.22
2022-10-04T16:24:54.446Z,101989.16
2022-10-04T16:27:41.925Z,101988.84
2022-10-04T16:30:28.174Z,101984.50
2022-10-04T16:33:12.285Z,101993.38
2022-10-04T16:35:43.510Z,101991.53
2022-10-04T16:38:12.777Z,101994.22
2022-10-04T16:40:51.554Z,101997.06
2022-10-04T16:43:18.000Z,102000.59
2022-10-04T16:46:30.336Z,101997.91
2022-10-04T16:49:17.110Z,102003.41
2022-10-04T16:52:12.411Z,101991.00
2022-10-04T16:55:16.461Z,101989.16
2022-10-04T16:57:43.429Z,102002.56
2022-10-04T17:00:33.625Z,101998.69
2022-10-04T17:03:17.530Z,102005.25
2022-10-04T17:05:49.003Z,101996.38
2022-10-04T17:08:15.418Z,101999.06
2022-10-04T17:11:13.211Z,102000.88
2022-10-04T17:14:00.948Z,101978.91
2022-10-04T17:16:38.703Z,101990.00
2022-10-04T17:19:18.292Z,101976.59
2022-10-04T17:22:05.859Z,101972.22
2022-10-04T17:24:49.641Z,101979.44
2022-10-04T17:27:26.470Z,101976.75
2022-10-04T17:30:12.464Z,101979.44
2022-10-04T17:32:54.187Z,101973.19
2022-10-04T17:35:58.515Z,101986.63
2022-10-04T17:38:25.012Z,101997.38
2022-10-04T17:41:00.646Z,101996.53
2022-10-04T17:43:34.939Z,101990.66
2022-10-04T17:46:29.034Z,101993.16
2022-10-04T17:49:20.689Z,101980.91
2022-10-04T17:52:08.956Z,101982.06
2022-10-04T17:54:56.980Z,101993.16
2022-10-04T17:57:41.632Z,101982.59
2022-10-04T18:00:10.234Z,101984.44
2022-10-04T18:02:52.534Z,101971.50
2022-10-04T18:05:28.975Z,101965.13
2022-10-04T18:08:07.588Z,101979.94
2022-10-04T18:10:39.457Z,101979.94
2022-10-04T18:13:15.524Z,101987.97
2022-10-04T18:15:54.778Z,101982.91
2022-10-04T18:18:36.956Z,101978.69
2022-10-04T18:21:27.436Z,101986.28
2022-10-04T18:23:59.760Z,101989.81
2022-10-04T18:26:30.207Z,101983.22
2022-10-04T18:28:59.306Z,101981.06
2022-10-04T18:31:42.470Z,101985.44
2022-10-04T18:34:29.743Z,101979.38
2022-10-04T18:37:20.110Z,101986.44
2022-10-04T18:39:55.291Z,101968.97
2022-10-04T18:42:37.024Z,101976.84
2022-10-04T18:45:20.165Z,101967.81
2022-10-04T18:47:49.671Z,101957.94
2022-10-04T18:50:24.231Z,101962.47
2022-10-04T18:53:41.803Z,101953.72
2022-10-04T18:56:10.606Z,101947.81
2022-10-04T18:59:28.689Z,101946.53
2022-10-04T19:02:18.540Z,101935.81
2022-10-04T19:05:09.532Z,101931.44
2022-10-04T19:07:55.115Z,101930.59
2022-10-04T19:10:44.338Z,101916.66
2022-10-04T19:13:39.311Z,101914.66
2022-10-04T19:16:16.145Z,101905.78
2022-10-04T19:19:14.074Z,101912.13
2022-10-04T19:21:47.634Z,101908.47
2022-10-04T19:24:20.206Z,101914.81
2022-10-04T19:27:12.324Z,101898.22
2022-10-04T19:30:02.290Z,101903.25
2022-10-04T19:32:34.608Z,101897.03
2022-10-04T19:35:24.799Z,101890.84
2022-10-04T19:38:06.593Z,101894.38
2022-10-04T19:40:48.486Z,101910.78
2022-10-04T19:43:31.757Z,101917.00
2022-10-04T19:46:13.969Z,101919.66
2022-10-04T19:48:49.875Z,101922.34
2022-10-04T19:51:28.356Z,101899.16
2022-10-04T19:54:03.808Z,101910.09
2022-10-04T19:56:35.842Z,101908.56
2022-10-04T19:59:11.376Z,101919.13
2022-10-04T20:01:38.698Z,101910.84
2022-10-04T20:04:33.493Z,101917.06
2022-10-04T20:07:02.982Z,101919.25
2022-10-04T20:09:43.956Z,101924.13
2022-10-04T20:12:29.410Z,101930.78
2022-10-04T20:15:17.463Z,101937.31
2022-10-04T20:17:45.630Z,101926.75
2022-10-04T20:20:38.024Z,101908.28
2022-10-04T20:23:07.537Z,101912.81
2022-10-04T20:25:43.202Z,101925.06
2022-10-04T20:28:10.330Z,101922.69
2022-10-04T20:30:52.762Z,101921.00
2022-10-04T20:33:34.581Z,101917.31
2022-10-04T20:36:09.145Z,101919.47
2022-10-04T20:38:59.618Z,101923.66
2022-10-04T20:41:28.947Z,101929.88
2022-10-04T20:43:57.863Z,101928.19
2022-10-04T20:46:27.044Z,101920.31
2022-10-04T20:48:54.964Z,101938.06
2022-10-04T20:51:22.738Z,101933.69
2022-10-04T20:53:52.648Z,101926.97
2022-10-04T20:56:33.691Z,101928.66
2022-10-04T20:59:02.916Z,101930.28
2022-10-04T21:01:42.739Z,101937.34
2022-10-04T21:04:32.920Z,101927.94
2022-10-04T21:07:05.971Z,101929.63
2022-10-04T21:09:34.709Z,101929.09
2022-10-04T21:12:02.508Z,101926.41
2022-10-04T21:14:31.203Z,101926.97
2022-10-04T21:17:02.978Z,101923.88
2022-10-04T21:19:33.225Z,101930.63
2022-10-04T21:22:01.938Z,101935.44
2022-10-04T21:24:34.823Z,101929.25
2022-10-04T21:27:01.928Z,101934.59
2022-10-04T21:29:28.467Z,101933.91
2022-10-04T21:31:58.951Z,101925.34
2022-10-04T21:34:51.503Z,101918.47
2022-10-04T21:37:12.740Z,101937.72
2022-10-04T21:39:39.314Z,101933.69
2022-10-04T21:42:05.889Z,101937.06
2022-10-04T21:44:32.396Z,101936.69
2022-10-04T21:46:58.882Z,101932.00
2022-10-04T21:49:25.525Z,101921.59
2022-10-04T21:51:52.126Z,101919.06
2022-10-04T21:54:18.615Z,101924.28
2022-10-04T21:56:45.425Z,101924.28
2022-10-04T21:59:12.081Z,101912.88
2022-10-04T22:01:38.574Z,101901.94
2022-10-04T22:04:05.112Z,101919.22
2022-10-04T22:06:31.685Z,101919.75
2022-10-04T22:08:58.193Z,101904.69
2022-10-04T22:11:24.714Z,101902.00
2022-10-04T22:13:51.252Z,101901.31
2022-10-04T22:16:18.274Z,101890.06
2022-10-04T22:18:44.815Z,101898.63
2022-10-04T22:21:11.394Z,101882.88
2022-10-04T22:23:41.650Z,101895.25
2022-10-04T22:26:22.519Z,101890.91
2022-10-04T22:28:51.230Z,101881.19
2022-10-04T22:31:20.844Z,101885.03
2022-10-04T22:33:50.015Z,101888.22
2022-10-04T22:36:20.430Z,101883.34
2022-10-04T22:39:09.095Z,101883.19
2022-10-04T22:41:47.262Z,101880.66
2022-10-04T22:44:25.790Z,101876.16
2022-10-04T22:46:55.322Z,101875.47
2022-10-04T22:49:25.856Z,101873.47
2022-10-04T22:51:54.413Z,101863.91
2022-10-04T22:54:24.477Z,101876.16
2022-10-04T22:56:52.339Z,101878.97
2022-10-04T22:59:27.547Z,101874.47
2022-10-04T23:01:54.039Z,101873.22
2022-10-04T23:04:24.806Z,101880.81
2022-10-04T23:06:52.579Z,101884.94
2022-10-04T23:09:20.388Z,101882.13
2022-10-04T23:11:47.036Z,101881.28
2022-10-04T23:14:13.601Z,101881.75
2022-10-04T23:16:40.160Z,101883.09
2022-10-04T23:19:10.054Z,101883.25
2022-10-04T23:21:38.868Z,101888.47
2022-10-04T23:24:15.619Z,101868.88
2022-10-04T23:26:44.687Z,101887.47
2022-10-04T23:29:23.150Z,101872.41
2022-10-04T23:31:51.551Z,101864.34
2022-10-04T23:34:24.076Z,101857.81
2022-10-04T23:36:51.795Z,101856.97
2022-10-04T23:39:26.637Z,101861.84
2022-10-04T23:41:55.339Z,101855.13
2022-10-04T23:44:35.244Z,101869.16
2022-10-04T23:47:02.541Z,101859.78
2022-10-04T23:49:29.138Z,101864.84
2022-10-04T23:52:00.729Z,101864.84
2022-10-04T23:54:27.634Z,101873.88
2022-10-04T23:56:54.322Z,101870.66
2022-10-04T23:59:24.521Z,101866.81
